KCRE/CRE METAR and TAF weather

Enter ICAO airport designator
Station Type Date Time Source
KCRE METAR 2018/01/23 01:03 UTC NOAA

KCRE 230103Z 12006KT 10SM SCT028 BKN035 BKN045 13/13 A3007 RMK AO1 T01330128


Station Type Date Time Source
KCRE Decoded METAR 2018/01/23 01:03 UTC NOAA

N. MYRTLE BCH.GRAND STRAND, SC, United States (KCRE) 33-49N 078-43W 10M
Jan 22, 2018 - 08:03 PM EST / 2018.01.23 0103 UTC
Wind: from the ESE (120 degrees) at 7 MPH (6 KT):0
Visibility: 10 mile(s):0
Sky conditions: mostly cloudy
Temperature: 55.9 F (13.3 C)
Dew Point: 55.0 F (12.8 C)
Relative Humidity: 96%
Pressure (altimeter): 30.07 in. Hg (1018 hPa)
ob: KCRE 230103Z 12006KT 10SM SCT028 BKN035 BKN045 13/13 A3007 RMK AO1 T01330128
cycle: 1

Station Type Date Time Source
KCRE TAF 2018/01/22 20:03 UTC NOAA

TAF
AMD KCRE 222001Z 2220/2318 12004KT P6SM BKN040 BKN200
TEMPO 2220/2221 5SM BR BKN005
FM230100 19006KT 5SM BR BKN012
TEMPO 2303/2307 1SM BR BKN003
FM230700 20010KT 5SM BR VCSH BKN006
FM231000 21012KT 4SM SHRA BKN007
TEMPO 2310/2314 2SM TSRA BKN006CB
FM231600 22018G25KT P6SM VCSH BKN008


Example: see airport list